Time;durP1;ratioP1;P1;durP2;ratioP2;P2;SDS_P1;SDS_P2;PMS_P1;PMS_P2;Temp;Humidity;BMP_temperature;BMP_pressure;BME280_temperature;BME280_humidity;BME280_pressure;Samples;Min_cycle;Max_cycle;Signal;HPM_P1;HPM_P2
2023/05/28 00:01:03;;;;;;;;;13.33;12.33;;;;;;;;5059866;28;45351;-78
2023/05/28 00:03:31;;;;;;;;;13.67;12.67;;;;;;;;5060020;28;45307;-78
2023/05/28 00:05:56;;;;;;;;;9.00;8.00;;;;;;;;5058070;28;47662;-77
2023/05/28 00:08:22;;;;;;;;;11.33;9.67;;;;;;;;5059551;28;45219;-77
2023/05/28 00:10:47;;;;;;;;;13.67;13.00;;;;;;;;5059562;28;45273;-77
2023/05/28 00:13:13;;;;;;;;;12.33;12.33;;;;;;;;5058072;28;45362;-77
2023/05/28 00:15:38;;;;;;;;;12.67;12.33;;;;;;;;5059670;28;45279;-77
2023/05/28 00:18:04;;;;;;;;;6.00;6.00;;;;;;;;5059760;28;45417;-78
2023/05/28 00:20:29;;;;;;;;;11.00;10.00;;;;;;;;5059457;28;45208;-78
2023/05/28 00:22:54;;;;;;;;;12.00;11.67;;;;;;;;5059682;28;45367;-78
2023/05/28 00:25:20;;;;;;;;;14.00;12.00;;;;;;;;5058128;28;46869;-77
2023/05/28 00:27:45;;;;;;;;;9.67;9.67;;;;;;;;5059195;28;45472;-77
2023/05/28 00:30:11;;;;;;;;;12.00;10.67;;;;;;;;5059347;28;45414;-77
2023/05/28 00:32:36;;;;;;;;;12.00;11.00;;;;;;;;5058119;28;45364;-77
2023/05/28 00:35:01;;;;;;;;;10.00;10.00;;;;;;;;5057934;28;47108;-77
2023/05/28 00:37:26;;;;;;;;;11.00;10.00;;;;;;;;5058876;28;47020;-77
2023/05/28 00:39:52;;;;;;;;;10.00;10.00;;;;;;;;5063035;28;45425;-77
2023/05/28 00:42:17;;;;;;;;;12.00;12.00;;;;;;;;5062926;28;45290;-77
2023/05/28 00:44:43;;;;;;;;;13.00;13.00;;;;;;;;5062837;28;45592;-77
2023/05/28 00:47:09;;;;;;;;;13.67;11.00;;;;;;;;5061514;28;46323;-77
2023/05/28 00:49:34;;;;;;;;;11.00;10.67;;;;;;;;5062800;28;45267;-77
2023/05/28 00:52:01;;;;;;;;;14.33;12.00;;;;;;;;5061537;28;45326;-77
2023/05/28 00:54:26;;;;;;;;;9.00;7.33;;;;;;;;5062727;28;45235;-78
2023/05/28 00:56:54;;;;;;;;;13.67;13.00;;;;;;;;5062288;28;45203;-76
2023/05/28 00:59:21;;;;;;;;;11.33;10.67;;;;;;;;5062633;28;45386;-77
2023/05/28 01:01:47;;;;;;;;;13.33;12.67;;;;;;;;5062797;28;45389;-77
2023/05/28 01:04:12;;;;;;;;;11.67;11.67;;;;;;;;5062499;28;45456;-77
2023/05/28 01:06:38;;;;;;;;;12.67;11.67;;;;;;;;5062437;28;45371;-77
2023/05/28 01:09:03;;;;;;;;;10.00;10.00;;;;;;;;5062495;28;45419;-77
2023/05/28 01:11:29;;;;;;;;;11.00;11.00;;;;;;;;5062703;28;45341;-77
2023/05/28 01:13:54;;;;;;;;;8.67;8.67;;;;;;;;5062236;28;45380;-77
2023/05/28 01:16:21;;;;;;;;;12.67;11.00;;;;;;;;5062218;28;45333;-77
2023/05/28 01:18:47;;;;;;;;;12.67;11.00;;;;;;;;5061029;28;45160;-76
2023/05/28 01:21:12;;;;;;;;;13.00;10.00;;;;;;;;5062020;28;45347;-77
2023/05/28 01:23:47;;;;;;;;;14.67;13.00;;;;;;;;5061656;28;45247;-77
2023/05/28 01:26:13;;;;;;;;;12.00;11.00;;;;;;;;5062144;28;46221;-77
2023/05/28 01:28:44;;;;;;;;;13.00;13.00;;;;;;;;5061904;28;45315;-76
2023/05/28 01:31:09;;;;;;;;;14.33;11.67;;;;;;;;5060802;28;45361;-77
2023/05/28 01:33:34;;;;;;;;;13.00;11.00;;;;;;;;5061959;28;45442;-76
2023/05/28 01:36:00;;;;;;;;;12.67;11.00;;;;;;;;5061984;28;45146;-77
2023/05/28 01:38:26;;;;;;;;;12.00;12.00;;;;;;;;5061761;28;45453;-77
2023/05/28 01:40:53;;;;;;;;;11.33;10.67;;;;;;;;5060889;28;45280;-76
2023/05/28 01:43:19;;;;;;;;;15.33;15.00;;;;;;;;5061760;28;45260;-77
2023/05/28 01:45:45;;;;;;;;;14.33;13.00;;;;;;;;5049382;28;47089;-77
2023/05/28 01:48:10;;;;;;;;;11.00;10.00;;;;;;;;5057133;28;45366;-77
2023/05/28 01:50:35;;;;;;;;;10.67;10.67;;;;;;;;5060583;28;45538;-76
2023/05/28 01:53:01;;;;;;;;;10.67;10.33;;;;;;;;5061892;28;45267;-77
2023/05/28 01:55:26;;;;;;;;;11.33;9.67;;;;;;;;5061531;28;46227;-77
2023/05/28 01:57:51;;;;;;;;;14.33;13.33;;;;;;;;5061476;28;45236;-77
2023/05/28 02:00:17;;;;;;;;;10.00;9.67;;;;;;;;5061917;28;45618;-77
2023/05/28 02:02:42;;;;;;;;;11.33;11.33;;;;;;;;5061686;28;45628;-77
2023/05/28 02:05:08;;;;;;;;;11.00;11.00;;;;;;;;5061575;28;46163;-77
2023/05/28 02:07:33;;;;;;;;;14.67;13.00;;;;;;;;5061633;28;45414;-77
2023/05/28 02:09:58;;;;;;;;;12.00;12.00;;;;;;;;5060438;28;45347;-77
2023/05/28 02:12:23;;;;;;;;;11.00;9.67;;;;;;;;5061349;28;45309;-77
2023/05/28 02:14:49;;;;;;;;;13.67;13.67;;;;;;;;5061324;28;45408;-76
2023/05/28 02:17:16;;;;;;;;;11.00;11.00;;;;;;;;5061315;28;45360;-77
2023/05/28 02:19:42;;;;;;;;;11.33;11.00;;;;;;;;5061712;28;45545;-77
2023/05/28 02:22:11;;;;;;;;;10.67;9.67;;;;;;;;5061017;28;45325;-76
2023/05/28 02:24:37;;;;;;;;;15.00;12.33;;;;;;;;5060095;28;47471;-77
2023/05/28 02:27:03;;;;;;;;;12.67;12.67;;;;;;;;5061017;28;45293;-76
2023/05/28 02:29:28;;;;;;;;;11.00;11.00;;;;;;;;5060038;28;45308;-77
2023/05/28 02:31:54;;;;;;;;;12.00;11.67;;;;;;;;5061043;28;45299;-77
2023/05/28 02:34:19;;;;;;;;;12.33;11.67;;;;;;;;5060999;28;45302;-77
2023/05/28 02:36:44;;;;;;;;;13.67;11.67;;;;;;;;5061090;28;45295;-77
2023/05/28 02:39:10;;;;;;;;;12.33;12.33;;;;;;;;5059665;28;45318;-77
2023/05/28 02:41:35;;;;;;;;;14.33;13.00;;;;;;;;5061110;28;45442;-77
2023/05/28 02:44:01;;;;;;;;;11.33;10.33;;;;;;;;5059411;28;46994;-76
2023/05/28 02:46:26;;;;;;;;;11.00;10.67;;;;;;;;5061049;28;45248;-77
2023/05/28 02:48:51;;;;;;;;;15.33;12.67;;;;;;;;5061189;28;45300;-77
2023/05/28 02:51:16;;;;;;;;;12.00;11.00;;;;;;;;5059404;28;45917;-77
2023/05/28 02:53:41;;;;;;;;;14.67;14.67;;;;;;;;5060846;28;45272;-77
2023/05/28 02:56:06;;;;;;;;;12.00;10.67;;;;;;;;5060987;28;45323;-76
2023/05/28 02:58:32;;;;;;;;;16.00;13.67;;;;;;;;5060739;28;45925;-77
2023/05/28 03:00:57;;;;;;;;;14.00;12.00;;;;;;;;5060047;28;45368;-76
2023/05/28 03:03:22;;;;;;;;;13.33;12.00;;;;;;;;5060661;28;46226;-76
2023/05/28 03:05:48;;;;;;;;;8.67;8.67;;;;;;;;5059429;28;45359;-77
2023/05/28 03:08:13;;;;;;;;;15.33;12.33;;;;;;;;5060875;28;45221;-77
2023/05/28 03:10:38;;;;;;;;;15.33;14.00;;;;;;;;5059302;28;46369;-77
2023/05/28 03:13:03;;;;;;;;;13.33;13.33;;;;;;;;5060383;28;46289;-76
2023/05/28 03:15:29;;;;;;;;;12.00;10.00;;;;;;;;5060453;28;45492;-77
2023/05/28 03:17:54;;;;;;;;;14.00;14.00;;;;;;;;5060634;28;45323;-77
2023/05/28 03:20:19;;;;;;;;;12.33;12.33;;;;;;;;5060323;28;45402;-76
2023/05/28 03:22:46;;;;;;;;;14.00;14.00;;;;;;;;5060451;28;45424;-77
2023/05/28 03:25:12;;;;;;;;;15.33;13.00;;;;;;;;5060458;28;45277;-76
2023/05/28 03:27:37;;;;;;;;;14.67;13.67;;;;;;;;5060294;28;45338;-77
2023/05/28 03:30:03;;;;;;;;;11.00;11.00;;;;;;;;5060204;28;45312;-77
2023/05/28 03:32:29;;;;;;;;;13.33;12.00;;;;;;;;5059009;28;48123;-77
2023/05/28 03:34:54;;;;;;;;;11.67;11.67;;;;;;;;5058603;28;45622;-76
2023/05/28 03:37:19;;;;;;;;;13.00;12.00;;;;;;;;5059986;28;45810;-77
2023/05/28 03:39:45;;;;;;;;;13.50;11.50;;;;;;;;5058689;28;46961;-77
2023/05/28 03:42:10;;;;;;;;;13.00;12.00;;;;;;;;5059873;28;45897;-77
2023/05/28 03:44:35;;;;;;;;;14.67;13.00;;;;;;;;5060202;28;45356;-76
2023/05/28 03:47:00;;;;;;;;;12.00;12.00;;;;;;;;5058974;28;45532;-76
2023/05/28 03:49:25;;;;;;;;;15.67;14.00;;;;;;;;5060027;28;45197;-77
2023/05/28 03:51:51;;;;;;;;;14.00;13.33;;;;;;;;5059708;28;46211;-77
2023/05/28 03:54:16;;;;;;;;;12.00;12.00;;;;;;;;5059967;28;45414;-77
2023/05/28 03:56:41;;;;;;;;;13.00;12.33;;;;;;;;5059934;28;45556;-77
2023/05/28 03:59:06;;;;;;;;;12.67;12.00;;;;;;;;5059917;28;45174;-76
2023/05/28 04:01:34;;;;;;;;;14.00;14.00;;;;;;;;5058354;28;47406;-77
2023/05/28 04:03:59;;;;;;;;;12.33;10.33;;;;;;;;5059796;28;45200;-77
2023/05/28 04:06:24;;;;;;;;;15.67;14.00;;;;;;;;5059843;28;45255;-77
2023/05/28 04:08:49;;;;;;;;;17.00;13.00;;;;;;;;5058438;28;46945;-76
2023/05/28 04:11:15;;;;;;;;;16.33;14.33;;;;;;;;5058992;28;45443;-76
2023/05/28 04:13:40;;;;;;;;;14.00;14.00;;;;;;;;5057695;28;45316;-76
2023/05/28 04:16:06;;;;;;;;;14.00;14.00;;;;;;;;5059694;28;45452;-77
2023/05/28 04:18:31;;;;;;;;;12.67;11.33;;;;;;;;5059583;28;45391;-77
2023/05/28 04:20:56;;;;;;;;;13.67;13.33;;;;;;;;5058017;28;48165;-77
2023/05/28 04:23:21;;;;;;;;;13.33;13.00;;;;;;;;5059658;28;45562;-76
2023/05/28 04:25:47;;;;;;;;;18.33;16.00;;;;;;;;5059731;28;45520;-76
2023/05/28 04:28:12;;;;;;;;;16.00;15.67;;;;;;;;5059117;28;45236;-76
2023/05/28 04:30:37;;;;;;;;;17.00;15.33;;;;;;;;5059214;28;46208;-76
2023/05/28 04:33:02;;;;;;;;;18.33;17.33;;;;;;;;5059452;28;45259;-76
2023/05/28 04:35:29;;;;;;;;;13.00;12.33;;;;;;;;5059537;28;45262;-76
2023/05/28 04:37:54;;;;;;;;;12.00;12.00;;;;;;;;5059088;28;45255;-77
2023/05/28 04:40:19;;;;;;;;;17.67;16.33;;;;;;;;5057876;28;47189;-78
2023/05/28 04:42:44;;;;;;;;;19.00;17.00;;;;;;;;5059177;28;45416;-77
2023/05/28 04:45:10;;;;;;;;;15.67;15.67;;;;;;;;5059622;28;45324;-77
2023/05/28 04:47:38;;;;;;;;;18.67;16.67;;;;;;;;5059141;28;45165;-77
2023/05/28 04:50:07;;;;;;;;;20.00;16.33;;;;;;;;5057978;28;46982;-77
2023/05/28 04:52:35;;;;;;;;;19.00;16.33;;;;;;;;5059002;28;45252;-78
2023/05/28 04:55:00;;;;;;;;;21.67;20.00;;;;;;;;5059178;28;45267;-78
2023/05/28 04:57:25;;;;;;;;;16.33;16.33;;;;;;;;5058938;28;45307;-78
2023/05/28 04:59:51;;;;;;;;;19.33;18.33;;;;;;;;5057778;28;48245;-79
2023/05/28 05:02:19;;;;;;;;;18.33;18.33;;;;;;;;5059123;28;45202;-77
2023/05/28 05:04:45;;;;;;;;;21.33;20.67;;;;;;;;5057834;28;45334;-77
2023/05/28 05:07:11;;;;;;;;;15.00;15.00;;;;;;;;5058752;28;45516;-78
2023/05/28 05:09:37;;;;;;;;;19.00;18.33;;;;;;;;5057746;28;48401;-76
2023/05/28 05:12:02;;;;;;;;;20.00;19.00;;;;;;;;5058634;28;45345;-78
2023/05/28 05:14:27;;;;;;;;;22.67;20.67;;;;;;;;5057734;28;45353;-78
2023/05/28 05:16:52;;;;;;;;;19.00;19.00;;;;;;;;5058897;28;45367;-77
2023/05/28 05:19:18;;;;;;;;;21.33;18.00;;;;;;;;5058863;28;45470;-79
2023/05/28 05:21:43;;;;;;;;;17.67;17.67;;;;;;;;5056873;28;45457;-77
2023/05/28 05:24:08;;;;;;;;;18.00;16.67;;;;;;;;5060567;28;45587;-77
2023/05/28 05:26:33;;;;;;;;;20.67;17.67;;;;;;;;5062085;28;45373;-78
2023/05/28 05:28:58;;;;;;;;;20.67;20.00;;;;;;;;5061909;28;45572;-79
2023/05/28 05:31:24;;;;;;;;;30.00;25.67;;;;;;;;5062172;28;45346;-78
2023/05/28 05:33:49;;;;;;;;;18.33;16.67;;;;;;;;5062245;28;45364;-79
2023/05/28 05:36:14;;;;;;;;;19.33;16.67;;;;;;;;5061951;28;45350;-79
2023/05/28 05:38:39;;;;;;;;;21.67;21.67;;;;;;;;5061583;28;45433;-77
2023/05/28 05:41:05;;;;;;;;;23.00;19.33;;;;;;;;5061939;28;45383;-78
2023/05/28 05:43:30;;;;;;;;;30.33;27.00;;;;;;;;5060602;28;45275;-78
2023/05/28 05:45:55;;;;;;;;;22.00;20.67;;;;;;;;5061934;28;45303;-78
2023/05/28 05:48:20;;;;;;;;;24.33;22.00;;;;;;;;5061844;28;46222;-78
2023/05/28 05:50:48;;;;;;;;;23.00;20.67;;;;;;;;5061828;28;45483;-78
2023/05/28 05:53:14;;;;;;;;;21.33;20.00;;;;;;;;5061926;28;45211;-78
2023/05/28 05:55:39;;;;;;;;;27.33;24.00;;;;;;;;5061677;28;45261;-78
2023/05/28 05:58:04;;;;;;;;;24.00;23.00;;;;;;;;5061661;28;45215;-79
2023/05/28 06:00:29;;;;;;;;;26.33;25.33;;;;;;;;5060467;28;45272;-78
2023/05/28 06:02:55;;;;;;;;;22.67;21.00;;;;;;;;5061928;28;45365;-79
2023/05/28 06:05:20;;;;;;;;;24.00;21.33;;;;;;;;5061462;28;45450;-78
2023/05/28 06:07:46;;;;;;;;;24.00;21.00;;;;;;;;5061553;28;45320;-78
2023/05/28 06:10:11;;;;;;;;;22.00;20.67;;;;;;;;5061630;28;45370;-78
2023/05/28 06:12:37;;;;;;;;;21.00;20.67;;;;;;;;5059740;28;45314;-77
2023/05/28 06:15:05;;;;;;;;;23.67;21.67;;;;;;;;5052002;28;45345;-79
2023/05/28 06:17:31;;;;;;;;;22.67;20.67;;;;;;;;5044388;28;46211;-78
2023/05/28 06:19:56;;;;;;;;;18.67;18.67;;;;;;;;5049132;28;45415;-78
2023/05/28 06:22:22;;;;;;;;;22.33;22.33;;;;;;;;5061344;28;45310;-78
2023/05/28 06:24:49;;;;;;;;;20.67;20.67;;;;;;;;5061221;28;45236;-79
2023/05/28 06:27:14;;;;;;;;;23.67;21.00;;;;;;;;5060986;28;46129;-79
2023/05/28 06:29:41;;;;;;;;;18.33;18.33;;;;;;;;5059442;28;45669;-78
2023/05/28 06:32:07;;;;;;;;;20.00;18.67;;;;;;;;5061411;28;45368;-76
2023/05/28 06:34:32;;;;;;;;;23.00;20.00;;;;;;;;5059977;28;45310;-76
2023/05/28 06:36:57;;;;;;;;;24.00;21.67;;;;;;;;5060497;28;46299;-78
2023/05/28 06:39:23;;;;;;;;;19.67;19.67;;;;;;;;5061152;28;45264;-78
2023/05/28 06:41:48;;;;;;;;;20.00;18.67;;;;;;;;5060911;28;45298;-79
2023/05/28 06:44:13;;;;;;;;;21.33;20.67;;;;;;;;5060951;28;45326;-79
2023/05/28 06:46:38;;;;;;;;;25.00;24.00;;;;;;;;5060964;28;45452;-79
2023/05/28 06:49:03;;;;;;;;;24.67;22.67;;;;;;;;5060944;28;45378;-79
2023/05/28 06:51:28;;;;;;;;;18.33;18.33;;;;;;;;5059573;28;45431;-79
2023/05/28 06:53:54;;;;;;;;;22.00;20.00;;;;;;;;5060716;28;45286;-80
2023/05/28 06:56:19;;;;;;;;;19.00;18.67;;;;;;;;5060784;28;46054;-79
2023/05/28 06:58:45;;;;;;;;;18.67;18.33;;;;;;;;5049079;28;45260;-79
2023/05/28 07:01:10;;;;;;;;;22.33;19.67;;;;;;;;5058843;28;45244;-80
2023/05/28 07:03:35;;;;;;;;;22.00;18.67;;;;;;;;5060697;28;45285;-81
2023/05/28 07:06:00;;;;;;;;;19.33;18.67;;;;;;;;5057531;28;45378;-79
2023/05/28 07:08:26;;;;;;;;;21.67;18.67;;;;;;;;5047738;28;45901;-81
2023/05/28 07:10:51;;;;;;;;;14.33;14.33;;;;;;;;5053210;28;46673;-79
2023/05/28 07:13:16;;;;;;;;;18.33;15.67;;;;;;;;5047173;28;46548;-79
2023/05/28 07:15:42;;;;;;;;;19.00;16.67;;;;;;;;5052641;28;46247;-79
2023/05/28 07:18:07;;;;;;;;;19.00;18.00;;;;;;;;5060393;28;45299;-79
2023/05/28 07:20:32;;;;;;;;;18.33;17.00;;;;;;;;5058886;28;45248;-78
2023/05/28 07:22:57;;;;;;;;;20.33;18.33;;;;;;;;5060451;28;45528;-79
2023/05/28 07:25:22;;;;;;;;;18.67;17.67;;;;;;;;5058776;28;47208;-80
2023/05/28 07:27:48;;;;;;;;;20.00;16.33;;;;;;;;5058754;28;45299;-79
2023/05/28 07:30:13;;;;;;;;;19.67;18.67;;;;;;;;5060299;28;45453;-76
2023/05/28 07:32:38;;;;;;;;;21.00;20.33;;;;;;;;5060234;28;45541;-77
2023/05/28 07:35:04;;;;;;;;;19.00;15.33;;;;;;;;5058651;28;47446;-78
2023/05/28 07:37:29;;;;;;;;;18.00;18.00;;;;;;;;5058496;28;45266;-76
2023/05/28 07:39:54;;;;;;;;;20.33;17.67;;;;;;;;5060256;28;45425;-76
2023/05/28 07:42:19;;;;;;;;;17.33;17.00;;;;;;;;5059832;28;45547;-75
2023/05/28 07:44:45;;;;;;;;;20.00;18.67;;;;;;;;5058283;28;45510;-75
2023/05/28 07:47:10;;;;;;;;;18.00;17.00;;;;;;;;5044804;28;45386;-75
2023/05/28 07:49:35;;;;;;;;;18.00;17.67;;;;;;;;5039208;28;45721;-76
2023/05/28 07:52:01;;;;;;;;;15.67;13.00;;;;;;;;5047004;28;45398;-76
2023/05/28 07:54:26;;;;;;;;;16.00;15.00;;;;;;;;5057889;28;47261;-75
2023/05/28 07:56:51;;;;;;;;;15.67;15.67;;;;;;;;5057705;28;45279;-74
2023/05/28 07:59:17;;;;;;;;;16.00;13.33;;;;;;;;5059929;28;45508;-75
2023/05/28 08:01:43;;;;;;;;;20.33;19.67;;;;;;;;5058222;28;47169;-75
2023/05/28 08:04:08;;;;;;;;;18.00;14.67;;;;;;;;5059280;28;45447;-74
2023/05/28 08:06:33;;;;;;;;;16.67;16.00;;;;;;;;5059500;28;45236;-76
2023/05/28 08:08:59;;;;;;;;;17.67;16.33;;;;;;;;5059794;28;45330;-75
2023/05/28 08:11:25;;;;;;;;;16.67;14.00;;;;;;;;5059720;28;45358;-76
2023/05/28 08:13:50;;;;;;;;;18.00;18.00;;;;;;;;5059150;28;46019;-75
2023/05/28 08:16:16;;;;;;;;;13.67;13.67;;;;;;;;5058115;28;45341;-75
2023/05/28 08:18:41;;;;;;;;;19.00;16.00;;;;;;;;5058342;28;45271;-74
2023/05/28 08:21:09;;;;;;;;;16.33;15.00;;;;;;;;5059191;28;45329;-76
2023/05/28 08:23:34;;;;;;;;;18.67;16.33;;;;;;;;5058223;28;48055;-75
2023/05/28 08:26:03;;;;;;;;;15.00;15.00;;;;;;;;5059430;28;45218;-74
2023/05/28 08:28:29;;;;;;;;;20.00;17.67;;;;;;;;5058023;28;45471;-75
2023/05/28 08:30:54;;;;;;;;;19.00;17.67;;;;;;;;5058988;28;45311;-75
2023/05/28 08:33:20;;;;;;;;;14.67;14.67;;;;;;;;5059277;28;46125;-76
2023/05/28 08:35:45;;;;;;;;;17.67;16.67;;;;;;;;5058875;28;45260;-75
2023/05/28 08:38:10;;;;;;;;;15.33;14.67;;;;;;;;5059208;28;45401;-76
2023/05/28 08:40:38;;;;;;;;;14.00;14.00;;;;;;;;5059234;28;45503;-76
2023/05/28 08:43:03;;;;;;;;;16.33;15.33;;;;;;;;5056827;28;48689;-76
2023/05/28 08:45:29;;;;;;;;;16.33;15.00;;;;;;;;5059069;28;45284;-74
2023/05/28 08:47:55;;;;;;;;;15.00;15.00;;;;;;;;5057760;28;45351;-76
2023/05/28 08:50:21;;;;;;;;;14.33;14.00;;;;;;;;5057760;28;46146;-76
2023/05/28 08:52:47;;;;;;;;;12.33;11.33;;;;;;;;5059132;28;45319;-76
2023/05/28 08:55:13;;;;;;;;;15.00;14.67;;;;;;;;5057424;28;45437;-76
2023/05/28 08:57:38;;;;;;;;;13.00;13.00;;;;;;;;5058828;28;45303;-76
2023/05/28 09:00:07;;;;;;;;;15.67;14.33;;;;;;;;5062067;28;45366;-77
2023/05/28 09:02:33;;;;;;;;;16.00;15.33;;;;;;;;5061606;28;46321;-75
2023/05/28 09:04:58;;;;;;;;;16.67;13.00;;;;;;;;5062487;28;45393;-75
2023/05/28 09:07:23;;;;;;;;;15.33;14.00;;;;;;;;5060657;28;45347;-75
2023/05/28 09:09:49;;;;;;;;;15.00;14.00;;;;;;;;5060683;28;46114;-75
2023/05/28 09:12:20;;;;;;;;;13.33;13.00;;;;;;;;5062485;28;45358;-76
2023/05/28 09:14:45;;;;;;;;;12.67;10.00;;;;;;;;5062165;28;45391;-75
2023/05/28 09:17:13;;;;;;;;;13.00;11.67;;;;;;;;5060254;28;45329;-75
2023/05/28 09:19:38;;;;;;;;;11.00;11.00;;;;;;;;5060725;28;47428;-75
2023/05/28 09:22:04;;;;;;;;;13.33;13.33;;;;;;;;5060424;28;47314;-75
2023/05/28 09:24:30;;;;;;;;;14.00;14.00;;;;;;;;5062075;28;45343;-74
2023/05/28 09:26:56;;;;;;;;;15.00;13.67;;;;;;;;5060436;28;45429;-75
2023/05/28 09:29:24;;;;;;;;;13.00;12.67;;;;;;;;5061943;28;45228;-76
2023/05/28 09:31:57;;;;;;;;;14.33;14.33;;;;;;;;5062154;28;45503;-78
2023/05/28 09:34:29;;;;;;;;;11.00;11.00;;;;;;;;5062032;28;45404;-75
2023/05/28 09:37:01;;;;;;;;;17.00;15.33;;;;;;;;5061513;28;45542;-76
2023/05/28 09:39:26;;;;;;;;;11.33;11.33;;;;;;;;5062091;28;45310;-78
2023/05/28 09:41:59;;;;;;;;;14.00;13.33;;;;;;;;5061490;28;45734;-75
2023/05/28 09:44:29;;;;;;;;;13.00;13.00;;;;;;;;5060516;28;46151;-75
2023/05/28 09:46:54;;;;;;;;;10.67;10.67;;;;;;;;5061919;28;45222;-78
2023/05/28 09:49:19;;;;;;;;;11.67;11.67;;;;;;;;5061793;28;45222;-77
2023/05/28 09:51:47;;;;;;;;;13.67;13.33;;;;;;;;5061667;28;46099;-78
2023/05/28 09:54:14;;;;;;;;;11.33;11.33;;;;;;;;5061781;28;45394;-79
2023/05/28 09:56:42;;;;;;;;;12.00;12.00;;;;;;;;5060605;28;45437;-78
2023/05/28 09:59:10;;;;;;;;;14.67;13.67;;;;;;;;5060055;28;46284;-76
2023/05/28 10:01:49;;;;;;;;;11.33;11.33;;;;;;;;5060034;28;47492;-78
2023/05/28 10:04:17;;;;;;;;;13.00;11.33;;;;;;;;5059959;28;45303;-78
2023/05/28 10:06:43;;;;;;;;;15.33;12.67;;;;;;;;5043469;28;45363;-78
2023/05/28 10:09:12;;;;;;;;;11.00;10.67;;;;;;;;5061051;28;45270;-79
2023/05/28 10:11:41;;;;;;;;;12.00;11.33;;;;;;;;5059666;28;47151;-78
2023/05/28 10:14:07;;;;;;;;;11.67;11.67;;;;;;;;5061505;28;45394;-79
2023/05/28 10:16:33;;;;;;;;;11.33;10.67;;;;;;;;5060144;28;45309;-81
2023/05/28 10:18:59;;;;;;;;;10.67;10.00;;;;;;;;5059519;28;46477;-79
2023/05/28 10:21:25;;;;;;;;;12.00;11.67;;;;;;;;5058467;28;46834;-77
2023/05/28 10:23:51;;;;;;;;;12.33;10.67;;;;;;;;5060219;28;45393;-79
2023/05/28 10:26:18;;;;;;;;;22.00;19.00;;;;;;;;5061097;28;45379;-78
2023/05/28 10:28:43;;;;;;;;;23.67;21.67;;;;;;;;5060532;28;45275;-78
2023/05/28 10:31:10;;;;;;;;;9.00;9.00;;;;;;;;5059679;28;47181;-83
2023/05/28 10:33:42;;;;;;;;;15.67;15.67;;;;;;;;5059552;28;45466;-77
2023/05/28 10:36:11;;;;;;;;;9.00;8.33;;;;;;;;5059706;28;45299;-79
2023/05/28 10:38:52;;;;;;;;;30.00;28.00;;;;;;;;5060905;28;45254;-83
2023/05/28 10:41:18;;;;;;;;;11.00;11.00;;;;;;;;5060702;28;45663;-79
2023/05/28 10:43:47;;;;;;;;;12.00;12.00;;;;;;;;5059823;28;45810;-79
2023/05/28 10:46:20;;;;;;;;;14.67;13.67;;;;;;;;5053419;28;45385;-80
2023/05/28 10:49:04;;;;;;;;;11.33;10.67;;;;;;;;5051116;28;45328;-83
2023/05/28 10:51:48;;;;;;;;;9.00;9.00;;;;;;;;5049745;28;45574;-79
2023/05/28 10:54:21;;;;;;;;;10.67;9.00;;;;;;;;5050253;28;45343;-82
2023/05/28 10:57:05;;;;;;;;;12.67;11.00;;;;;;;;5044627;28;45389;-80
2023/05/28 10:59:37;;;;;;;;;11.00;11.00;;;;;;;;5040530;28;45358;-80
2023/05/28 11:02:03;;;;;;;;;9.67;9.33;;;;;;;;5040727;28;45455;-80
2023/05/28 11:04:32;;;;;;;;;7.00;7.00;;;;;;;;5039045;28;45266;-81
2023/05/28 11:06:57;;;;;;;;;8.33;8.33;;;;;;;;5040779;28;45401;-81
2023/05/28 11:09:22;;;;;;;;;8.33;8.33;;;;;;;;5041155;28;46109;-82
2023/05/28 11:11:48;;;;;;;;;8.67;8.67;;;;;;;;5053347;28;46961;-82
2023/05/28 11:14:15;;;;;;;;;9.67;9.00;;;;;;;;5058967;28;45357;-81
2023/05/28 11:16:40;;;;;;;;;8.67;8.67;;;;;;;;5061025;28;45299;-81
2023/05/28 11:19:10;;;;;;;;;7.67;7.67;;;;;;;;5060867;28;45440;-80
2023/05/28 11:21:55;;;;;;;;;8.00;7.00;;;;;;;;5059943;28;46031;-79
2023/05/28 11:24:21;;;;;;;;;8.67;8.67;;;;;;;;5044102;28;45433;-79
2023/05/28 11:26:46;;;;;;;;;9.00;9.00;;;;;;;;5038924;28;45399;-81
2023/05/28 11:29:12;;;;;;;;;8.00;6.33;;;;;;;;5047723;28;45367;-81
2023/05/28 11:31:41;;;;;;;;;7.67;7.67;;;;;;;;5060833;28;46362;-80
2023/05/28 11:34:07;;;;;;;;;9.67;9.33;;;;;;;;5058834;28;45252;-76
2023/05/28 11:36:39;;;;;;;;;7.67;7.67;;;;;;;;5060354;28;45488;-75
2023/05/28 11:39:04;;;;;;;;;8.67;8.67;;;;;;;;5058558;28;46292;-78
2023/05/28 11:41:30;;;;;;;;;6.33;6.33;;;;;;;;5060029;28;46578;-75
2023/05/28 11:43:55;;;;;;;;;9.00;7.33;;;;;;;;5060294;28;45362;-77
2023/05/28 11:46:24;;;;;;;;;12.33;12.33;;;;;;;;5058850;28;45452;-77
2023/05/28 11:48:50;;;;;;;;;10.33;10.33;;;;;;;;5060130;28;45208;-77
2023/05/28 11:51:18;;;;;;;;;13.67;11.00;;;;;;;;5060024;28;45358;-77
2023/05/28 11:53:44;;;;;;;;;9.00;9.00;;;;;;;;5061052;28;45292;-78
2023/05/28 11:56:10;;;;;;;;;10.00;9.00;;;;;;;;5060223;28;45353;-79
2023/05/28 11:58:40;;;;;;;;;7.67;7.67;;;;;;;;5048754;28;45519;-77
2023/05/28 12:01:07;;;;;;;;;13.67;13.67;;;;;;;;5042994;28;47626;-78
2023/05/28 12:03:33;;;;;;;;;8.00;8.00;;;;;;;;5055120;28;47222;-76
2023/05/28 12:05:58;;;;;;;;;11.67;9.67;;;;;;;;5060248;28;45358;-76
2023/05/28 12:08:23;;;;;;;;;8.00;8.00;;;;;;;;5059998;28;45476;-76
2023/05/28 12:10:48;;;;;;;;;10.67;10.00;;;;;;;;5059657;28;45303;-79
2023/05/28 12:13:14;;;;;;;;;9.00;9.00;;;;;;;;5057658;28;45363;-78
2023/05/28 12:15:39;;;;;;;;;10.00;8.00;;;;;;;;5060576;28;45491;-78
2023/05/28 12:18:04;;;;;;;;;10.33;10.33;;;;;;;;5059992;28;45442;-79
2023/05/28 12:20:37;;;;;;;;;10.67;10.67;;;;;;;;5059546;28;46591;-77
2023/05/28 12:23:12;;;;;;;;;8.67;8.67;;;;;;;;5058107;28;45597;-77
2023/05/28 12:25:43;;;;;;;;;8.00;7.67;;;;;;;;5060002;28;45374;-78
2023/05/28 12:28:09;;;;;;;;;7.00;7.00;;;;;;;;5060017;28;45328;-78
2023/05/28 12:30:34;;;;;;;;;8.00;8.00;;;;;;;;5060006;28;46429;-77
2023/05/28 12:32:59;;;;;;;;;10.00;9.00;;;;;;;;5058555;28;45958;-77
2023/05/28 12:35:25;;;;;;;;;9.00;8.67;;;;;;;;5061795;28;45327;-78
2023/05/28 12:37:50;;;;;;;;;11.00;9.00;;;;;;;;5062761;28;45551;-78
2023/05/28 12:40:15;;;;;;;;;8.33;7.00;;;;;;;;5061832;28;47230;-79
2023/05/28 12:42:41;;;;;;;;;9.00;9.00;;;;;;;;5061494;28;46124;-77
2023/05/28 12:45:06;;;;;;;;;9.50;7.50;;;;;;;;5061915;28;45273;-77
2023/05/28 12:47:31;;;;;;;;;9.67;8.67;;;;;;;;5062900;28;45307;-78
2023/05/28 12:49:56;;;;;;;;;10.33;8.67;;;;;;;;5063013;28;46746;-78
2023/05/28 12:52:22;;;;;;;;;8.00;8.00;;;;;;;;5062822;28;45405;-77
2023/05/28 12:54:47;;;;;;;;;7.67;7.67;;;;;;;;5063106;28;45416;-78
2023/05/28 12:57:12;;;;;;;;;8.33;7.33;;;;;;;;5062628;28;45740;-79
2023/05/28 12:59:37;;;;;;;;;7.75;7.75;;;;;;;;5061369;28;46968;-79
2023/05/28 13:02:03;;;;;;;;;8.00;8.00;;;;;;;;5062779;28;45283;-77
2023/05/28 13:04:28;;;;;;;;;10.33;9.00;;;;;;;;5062869;28;45286;-77
2023/05/28 13:06:53;;;;;;;;;9.00;6.67;;;;;;;;5062433;28;45473;-78
2023/05/28 13:09:18;;;;;;;;;9.33;9.33;;;;;;;;5061114;28;47433;-78
2023/05/28 13:11:43;;;;;;;;;7.67;7.67;;;;;;;;5061569;28;45354;-79
2023/05/28 13:14:09;;;;;;;;;9.67;9.67;;;;;;;;5062725;28;45474;-77
2023/05/28 13:16:35;;;;;;;;;8.00;8.00;;;;;;;;5062468;28;45986;-78
2023/05/28 13:19:01;;;;;;;;;10.33;10.00;;;;;;;;5060980;28;48218;-79
2023/05/28 13:21:27;;;;;;;;;9.33;8.33;;;;;;;;5061165;28;45270;-81
2023/05/28 13:23:52;;;;;;;;;9.33;9.00;;;;;;;;5061519;28;45283;-78
2023/05/28 13:26:17;;;;;;;;;12.00;8.67;;;;;;;;5061697;28;47024;-78
2023/05/28 13:28:42;;;;;;;;;7.00;7.00;;;;;;;;5060795;28;47536;-79
2023/05/28 13:31:07;;;;;;;;;9.00;7.33;;;;;;;;5061159;28;45196;-79
2023/05/28 13:33:33;;;;;;;;;11.67;10.67;;;;;;;;5060963;28;45148;-78
2023/05/28 13:35:58;;;;;;;;;9.00;9.00;;;;;;;;5061632;28;46246;-79
2023/05/28 13:38:23;;;;;;;;;9.67;8.33;;;;;;;;5061185;28;47838;-78
2023/05/28 13:40:48;;;;;;;;;9.00;9.00;;;;;;;;5062629;28;45215;-78
2023/05/28 13:43:14;;;;;;;;;7.67;7.00;;;;;;;;5063021;28;45205;-79
2023/05/28 13:45:40;;;;;;;;;8.67;8.67;;;;;;;;5061753;28;47036;-78
2023/05/28 13:48:05;;;;;;;;;9.33;9.33;;;;;;;;5062996;28;45436;-77
2023/05/28 13:50:30;;;;;;;;;8.33;8.33;;;;;;;;5065657;28;45393;-77
2023/05/28 13:52:56;;;;;;;;;8.33;7.33;;;;;;;;5063284;28;45314;-76
2023/05/28 13:55:21;;;;;;;;;7.67;7.00;;;;;;;;5064414;28;45291;-77
2023/05/28 13:57:46;;;;;;;;;8.33;8.00;;;;;;;;5062884;28;45354;-78
2023/05/28 14:00:12;;;;;;;;;8.33;8.33;;;;;;;;5063117;28;45330;-77
2023/05/28 14:02:37;;;;;;;;;10.67;9.00;;;;;;;;5061016;28;45605;-76
2023/05/28 14:05:02;;;;;;;;;6.00;6.00;;;;;;;;5060805;28;46240;-77
2023/05/28 14:07:27;;;;;;;;;9.67;7.00;;;;;;;;5055382;28;47385;-77
2023/05/28 14:09:53;;;;;;;;;4.00;4.00;;;;;;;;5054107;28;45327;-79
2023/05/28 14:12:18;;;;;;;;;7.67;6.67;;;;;;;;5046242;28;45489;-77
2023/05/28 14:14:43;;;;;;;;;12.67;10.00;;;;;;;;5041371;28;45531;-78
2023/05/28 14:17:08;;;;;;;;;6.67;6.67;;;;;;;;5041800;28;45430;-77